createdAt,value
2018-08-13T00:00:18.142Z,1002.46
2018-08-13T00:00:44.290Z,1002.45
2018-08-13T00:01:10.477Z,1002.47
2018-08-13T00:01:36.620Z,1002.45
2018-08-13T00:02:02.751Z,1002.45
2018-08-13T00:02:28.918Z,1002.42
2018-08-13T00:02:55.077Z,1002.42
2018-08-13T00:03:21.206Z,1002.39
2018-08-13T00:03:47.375Z,1002.39
2018-08-13T00:04:13.514Z,1002.36
2018-08-13T00:04:39.648Z,1002.38
2018-08-13T00:05:05.780Z,1002.32
2018-08-13T00:05:31.922Z,1002.36
2018-08-13T00:05:58.050Z,1002.35
2018-08-13T00:06:24.191Z,1002.36
2018-08-13T00:06:50.334Z,1002.32
2018-08-13T00:07:16.468Z,1002.31
2018-08-13T00:07:42.604Z,1002.31
2018-08-13T00:08:08.738Z,1002.34
2018-08-13T00:08:34.875Z,1002.29
2018-08-13T00:09:01.019Z,1002.32
2018-08-13T00:09:27.147Z,1002.31
2018-08-13T00:09:53.290Z,1002.28
2018-08-13T00:10:19.421Z,1002.29
2018-08-13T00:10:45.556Z,1002.28
2018-08-13T00:11:11.696Z,1002.23
2018-08-13T00:11:37.829Z,1002.22
2018-08-13T00:12:03.993Z,1002.25
2018-08-13T00:12:30.133Z,1002.25
2018-08-13T00:12:56.289Z,1002.25
2018-08-13T00:13:22.427Z,1002.25
2018-08-13T00:13:48.559Z,1002.2
2018-08-13T00:14:14.714Z,1002.21
2018-08-13T00:14:40.851Z,1002.21
2018-08-13T00:15:07.037Z,1002.23
2018-08-13T00:15:36.211Z,1002.2
2018-08-13T00:16:02.352Z,1002.21
2018-08-13T00:16:28.484Z,1002.21
2018-08-13T00:16:54.628Z,1002.19
2018-08-13T00:17:20.762Z,1002.2
2018-08-13T00:17:46.894Z,1002.21
2018-08-13T00:18:13.034Z,1002.17
2018-08-13T00:18:39.170Z,1002.21
2018-08-13T00:19:05.301Z,1002.16
2018-08-13T00:19:31.458Z,1002.17
2018-08-13T00:19:57.616Z,1002.21
2018-08-13T00:20:23.753Z,1002.18
2018-08-13T00:20:49.887Z,1002.2
2018-08-13T00:21:16.024Z,1002.22
2018-08-13T00:21:42.208Z,1002.18
2018-08-13T00:22:08.362Z,1002.19
2018-08-13T00:22:34.505Z,1002.19
2018-08-13T00:23:00.631Z,1002.21
2018-08-13T00:23:26.801Z,1002.2
2018-08-13T00:23:52.938Z,1002.17
2018-08-13T00:24:19.095Z,1002.2
2018-08-13T00:24:45.231Z,1002.2
2018-08-13T00:25:11.392Z,1002.19
2018-08-13T00:25:37.527Z,1002.19
2018-08-13T00:26:03.667Z,1002.18
2018-08-13T00:26:29.802Z,1002.19
2018-08-13T00:26:55.968Z,1002.19
2018-08-13T00:27:22.104Z,1002.18
2018-08-13T00:27:48.242Z,1002.19
2018-08-13T00:28:14.380Z,1002.17
2018-08-13T00:28:40.517Z,1002.19
2018-08-13T00:29:06.674Z,1002.16
2018-08-13T00:29:32.810Z,1002.2
2018-08-13T00:29:58.946Z,1002.17
2018-08-13T00:30:25.088Z,1002.17
2018-08-13T00:30:51.218Z,1002.21
2018-08-13T00:31:17.361Z,1002.17
2018-08-13T00:31:43.497Z,1002.21
2018-08-13T00:32:09.633Z,1002.17
2018-08-13T00:32:35.776Z,1002.19
2018-08-13T00:33:01.909Z,1002.19
2018-08-13T00:33:28.078Z,1002.21
2018-08-13T00:33:54.214Z,1002.2
2018-08-13T00:34:20.350Z,1002.18
2018-08-13T00:34:46.506Z,1002.21
2018-08-13T00:35:12.641Z,1002.16
2018-08-13T00:35:38.781Z,1002.12
2018-08-13T00:36:04.923Z,1002.18
2018-08-13T00:36:31.061Z,1002.14
2018-08-13T00:36:57.193Z,1002.12
2018-08-13T00:37:23.346Z,1002.1
2018-08-13T00:37:49.487Z,1002.12
2018-08-13T00:38:15.626Z,1002.13
2018-08-13T00:38:41.788Z,1002.1
2018-08-13T00:39:07.922Z,1002.08
2018-08-13T00:39:34.078Z,1002.09
2018-08-13T00:40:00.222Z,1002.12
2018-08-13T00:40:26.382Z,1002.09
2018-08-13T00:40:52.511Z,1002.1
2018-08-13T00:41:18.655Z,1002.11
2018-08-13T00:41:44.792Z,1002.1
2018-08-13T00:42:10.926Z,1002.13
2018-08-13T00:42:37.113Z,1002.07
2018-08-13T00:43:03.298Z,1002.1
2018-08-13T00:43:29.454Z,1002.1
2018-08-13T00:43:55.588Z,1002.08
2018-08-13T00:44:21.754Z,1002.08
2018-08-13T00:44:47.894Z,1002.08
2018-08-13T00:45:14.028Z,1002.09
2018-08-13T00:45:40.190Z,1002.04
2018-08-13T00:46:06.330Z,1002.03
2018-08-13T00:46:32.459Z,1002.02
2018-08-13T00:46:58.622Z,1002
2018-08-13T00:47:24.757Z,1002
2018-08-13T00:47:50.901Z,1001.95
2018-08-13T00:48:17.059Z,1001.98
2018-08-13T00:48:43.221Z,1001.94
2018-08-13T00:49:09.354Z,1001.91
2018-08-13T00:49:35.497Z,1001.92
2018-08-13T00:50:01.632Z,1001.92
2018-08-13T00:50:27.770Z,1001.87
2018-08-13T00:50:53.908Z,1001.9
2018-08-13T00:51:20.068Z,1001.88
2018-08-13T00:51:46.201Z,1001.88
2018-08-13T00:52:12.342Z,1001.89
2018-08-13T00:52:38.477Z,1001.87
2018-08-13T00:53:04.609Z,1001.87
2018-08-13T00:53:30.742Z,1001.87
2018-08-13T00:53:56.881Z,1001.86
2018-08-13T00:54:23.020Z,1001.84
2018-08-13T00:54:49.154Z,1001.82
2018-08-13T00:55:15.300Z,1001.85
2018-08-13T00:55:41.462Z,1001.82
2018-08-13T00:56:07.591Z,1001.82
2018-08-13T00:56:33.725Z,1001.88
2018-08-13T00:56:59.857Z,1001.84
2018-08-13T00:57:26.014Z,1001.83
2018-08-13T00:57:52.182Z,1001.82
2018-08-13T00:58:18.314Z,1001.86
2018-08-13T00:58:44.471Z,1001.85
2018-08-13T00:59:10.634Z,1001.84
2018-08-13T00:59:36.764Z,1001.78
2018-08-13T01:00:02.904Z,1001.85
2018-08-13T01:00:29.045Z,1001.84
2018-08-13T01:00:55.184Z,1001.83
2018-08-13T01:01:21.318Z,1001.81
2018-08-13T01:01:47.459Z,1001.8
2018-08-13T01:02:13.599Z,1001.81
2018-08-13T01:02:39.743Z,1001.82
2018-08-13T01:03:05.928Z,1001.82
2018-08-13T01:03:32.064Z,1001.84
2018-08-13T01:03:58.218Z,1001.82
2018-08-13T01:04:24.354Z,1001.83
2018-08-13T01:04:50.484Z,1001.85
2018-08-13T01:05:16.629Z,1001.84
2018-08-13T01:05:42.760Z,1001.82
2018-08-13T01:06:08.903Z,1001.88
2018-08-13T01:06:35.057Z,1001.85
2018-08-13T01:07:01.196Z,1001.86
2018-08-13T01:07:27.327Z,1001.86
2018-08-13T01:07:53.472Z,1001.82
2018-08-13T01:08:19.643Z,1001.82
2018-08-13T01:08:45.787Z,1001.86
2018-08-13T01:09:11.949Z,1001.84
2018-08-13T01:09:38.088Z,1001.79
2018-08-13T01:10:04.241Z,1001.8
2018-08-13T01:10:30.380Z,1001.78
2018-08-13T01:10:56.517Z,1001.79
2018-08-13T01:11:22.680Z,1001.8
2018-08-13T01:11:48.811Z,1001.78
2018-08-13T01:12:14.951Z,1001.79
2018-08-13T01:12:41.085Z,1001.79
2018-08-13T01:13:07.227Z,1001.78
2018-08-13T01:13:33.365Z,1001.8
2018-08-13T01:13:59.507Z,1001.75
2018-08-13T01:14:25.667Z,1001.77
2018-08-13T01:14:51.796Z,1001.79
2018-08-13T01:15:17.941Z,1001.78
2018-08-13T01:15:44.076Z,1001.76
2018-08-13T01:16:10.212Z,1001.76
2018-08-13T01:16:36.346Z,1001.74
2018-08-13T01:17:02.481Z,1001.74
2018-08-13T01:17:28.618Z,1001.73
2018-08-13T01:17:54.753Z,1001.73
2018-08-13T01:18:20.888Z,1001.74
2018-08-13T01:18:47.022Z,1001.74
2018-08-13T01:19:13.165Z,1001.73
2018-08-13T01:19:39.304Z,1001.74
2018-08-13T01:20:05.436Z,1001.69
2018-08-13T01:20:31.577Z,1001.74
2018-08-13T01:20:57.730Z,1001.69
2018-08-13T01:21:23.876Z,1001.72
2018-08-13T01:21:50.018Z,1001.72
2018-08-13T01:22:16.153Z,1001.73
2018-08-13T01:22:42.312Z,1001.71
2018-08-13T01:23:08.452Z,1001.73
2018-08-13T01:23:34.581Z,1001.71
2018-08-13T01:24:00.714Z,1001.7
2018-08-13T01:24:26.856Z,1001.71
2018-08-13T01:24:52.990Z,1001.73
2018-08-13T01:25:19.130Z,1001.7
2018-08-13T01:25:45.269Z,1001.74
2018-08-13T01:26:11.422Z,1001.7
2018-08-13T01:26:37.558Z,1001.72
2018-08-13T01:27:03.692Z,1001.73
2018-08-13T01:27:29.833Z,1001.71
2018-08-13T01:27:55.985Z,1001.7
2018-08-13T01:28:22.135Z,1001.73
2018-08-13T01:28:48.284Z,1001.72
2018-08-13T01:29:14.418Z,1001.73
2018-08-13T01:29:40.554Z,1001.7
2018-08-13T01:30:06.707Z,1001.73
2018-08-13T01:30:32.840Z,1001.69
2018-08-13T01:30:59.005Z,1001.7
2018-08-13T01:31:25.140Z,1001.7
2018-08-13T01:31:51.280Z,1001.68
2018-08-13T01:32:17.418Z,1001.65
2018-08-13T01:32:43.553Z,1001.64
2018-08-13T01:33:09.689Z,1001.64
2018-08-13T01:33:35.829Z,1001.63
2018-08-13T01:34:01.962Z,1001.64
2018-08-13T01:34:28.099Z,1001.6
2018-08-13T01:34:54.271Z,1001.63
2018-08-13T01:35:20.417Z,1001.59
2018-08-13T01:35:46.553Z,1001.55
2018-08-13T01:36:12.687Z,1001.57
2018-08-13T01:36:38.865Z,1001.6
2018-08-13T01:37:05.003Z,1001.61
2018-08-13T01:37:31.159Z,1001.59
2018-08-13T01:37:57.292Z,1001.59
2018-08-13T01:38:23.432Z,1001.54
2018-08-13T01:38:49.566Z,1001.56
2018-08-13T01:39:15.706Z,1001.57
2018-08-13T01:39:41.888Z,1001.53
2018-08-13T01:40:07.976Z,1001.55
2018-08-13T01:40:34.115Z,1001.54
2018-08-13T01:41:00.250Z,1001.52
2018-08-13T01:41:26.381Z,1001.52
2018-08-13T01:41:52.550Z,1001.52
2018-08-13T01:42:18.683Z,1001.5
2018-08-13T01:42:44.843Z,1001.54
2018-08-13T01:43:10.982Z,1001.53
2018-08-13T01:43:37.116Z,1001.51
2018-08-13T01:44:03.279Z,1001.53
2018-08-13T01:44:29.415Z,1001.49
2018-08-13T01:44:55.544Z,1001.54
2018-08-13T01:45:21.681Z,1001.56
2018-08-13T01:45:47.825Z,1001.53
2018-08-13T01:46:13.958Z,1001.52
2018-08-13T01:46:40.091Z,1001.52
2018-08-13T01:47:06.230Z,1001.52
2018-08-13T01:47:32.393Z,1001.52
2018-08-13T01:47:58.531Z,1001.56
2018-08-13T01:48:24.662Z,1001.56
2018-08-13T01:48:50.803Z,1001.55
2018-08-13T01:49:16.971Z,1001.53
2018-08-13T01:49:43.126Z,1001.54
2018-08-13T01:50:09.265Z,1001.53
2018-08-13T01:50:35.411Z,1001.52
2018-08-13T01:51:01.574Z,1001.5
2018-08-13T01:51:27.725Z,1001.48
2018-08-13T01:51:53.865Z,1001.47
2018-08-13T01:52:19.998Z,1001.47
2018-08-13T01:52:46.128Z,1001.48
2018-08-13T01:53:12.298Z,1001.46
2018-08-13T01:53:38.429Z,1001.45
2018-08-13T01:54:04.568Z,1001.49
2018-08-13T01:54:30.721Z,1001.45
2018-08-13T01:54:56.852Z,1001.46
2018-08-13T01:55:22.992Z,1001.39
2018-08-13T01:55:49.152Z,1001.4
2018-08-13T01:56:15.286Z,1001.35
2018-08-13T01:56:41.425Z,1001.36
2018-08-13T01:57:07.565Z,1001.35
2018-08-13T01:57:33.703Z,1001.35
2018-08-13T01:57:59.846Z,1001.34
2018-08-13T01:58:25.977Z,1001.36
2018-08-13T01:58:52.165Z,1001.34
2018-08-13T01:59:18.301Z,1001.33
2018-08-13T01:59:44.437Z,1001.33
2018-08-13T02:00:10.603Z,1001.36
2018-08-13T02:00:36.744Z,1001.35
2018-08-13T02:01:02.874Z,1001.35
2018-08-13T02:01:29.118Z,1001.33
2018-08-13T02:01:55.164Z,1001.35
2018-08-13T02:02:21.299Z,1001.31
2018-08-13T02:02:47.442Z,1001.28
2018-08-13T02:03:13.571Z,1001.31
2018-08-13T02:03:39.713Z,1001.31
2018-08-13T02:04:05.922Z,1001.26
2018-08-13T02:04:32.056Z,1001.25
2018-08-13T02:04:58.198Z,1001.22
2018-08-13T02:05:24.327Z,1001.25
2018-08-13T02:05:50.486Z,1001.23
2018-08-13T02:06:16.666Z,1001.19
2018-08-13T02:06:42.801Z,1001.18
2018-08-13T02:07:08.938Z,1001.21
2018-08-13T02:07:35.081Z,1001.17
2018-08-13T02:08:01.208Z,1001.13
2018-08-13T02:08:27.365Z,1001.19
2018-08-13T02:08:53.503Z,1001.12
2018-08-13T02:09:19.635Z,1001.12
2018-08-13T02:09:45.771Z,1001.1
2018-08-13T02:10:11.921Z,1001.11
2018-08-13T02:10:38.072Z,1001.1
2018-08-13T02:11:04.204Z,1001.07
2018-08-13T02:11:30.340Z,1001.05
2018-08-13T02:11:56.477Z,1001.05
2018-08-13T02:12:22.621Z,1001.07
2018-08-13T02:12:48.756Z,1001.09
2018-08-13T02:13:14.889Z,1001.1
2018-08-13T02:13:41.038Z,1001.09
2018-08-13T02:14:07.163Z,1001.06
2018-08-13T02:14:33.300Z,1001.07
2018-08-13T02:14:59.437Z,1001.08
2018-08-13T02:15:25.570Z,1001.06
2018-08-13T02:15:51.703Z,1001.08
2018-08-13T02:16:17.844Z,1001.08
2018-08-13T02:16:43.987Z,1001.09
2018-08-13T02:17:10.111Z,1001.08
2018-08-13T02:17:36.253Z,1001.09
2018-08-13T02:18:02.414Z,1001.07
2018-08-13T02:18:28.546Z,1001.07
2018-08-13T02:18:54.683Z,1001.03
2018-08-13T02:19:20.826Z,1001.04
2018-08-13T02:19:46.959Z,1001.05
2018-08-13T02:20:13.100Z,1001.04
2018-08-13T02:20:39.259Z,1001.03
2018-08-13T02:21:05.392Z,1001.01
2018-08-13T02:21:31.539Z,1000.98
2018-08-13T02:21:57.673Z,1000.99
2018-08-13T02:22:23.814Z,1000.95
2018-08-13T02:22:49.977Z,1000.97
2018-08-13T02:23:16.109Z,1000.99
2018-08-13T02:23:42.247Z,1000.93
2018-08-13T02:24:08.385Z,1000.95
2018-08-13T02:24:34.519Z,1000.95
2018-08-13T02:25:00.659Z,1000.93
2018-08-13T02:25:26.798Z,1000.91
2018-08-13T02:25:52.940Z,1000.88
2018-08-13T02:26:19.078Z,1000.91
2018-08-13T02:26:45.206Z,1000.92
2018-08-13T02:27:11.349Z,1000.89
2018-08-13T02:27:37.486Z,1000.92
2018-08-13T02:28:03.623Z,1000.88
2018-08-13T02:28:29.762Z,1000.92
2018-08-13T02:28:55.894Z,1000.9
2018-08-13T02:29:22.056Z,1000.9
2018-08-13T02:29:48.184Z,1000.93
2018-08-13T02:30:14.320Z,1000.93
2018-08-13T02:30:40.480Z,1000.94
2018-08-13T02:31:06.619Z,1000.94
2018-08-13T02:31:32.773Z,1000.94
2018-08-13T02:31:58.950Z,1000.98
2018-08-13T02:32:25.110Z,1000.99
2018-08-13T02:32:51.291Z,1001.02
2018-08-13T02:33:17.454Z,1000.98
2018-08-13T02:33:43.592Z,1001.01
2018-08-13T02:34:09.730Z,1000.98
2018-08-13T02:34:35.909Z,1000.98
2018-08-13T02:35:02.052Z,1000.97
2018-08-13T02:35:28.259Z,1000.96
2018-08-13T02:35:54.404Z,1000.97
2018-08-13T02:36:20.544Z,1000.98
2018-08-13T02:36:46.703Z,1000.99
2018-08-13T02:37:12.838Z,1000.94
2018-08-13T02:37:38.968Z,1000.94
2018-08-13T02:38:05.123Z,1001
2018-08-13T02:38:31.292Z,1000.99
2018-08-13T02:38:57.459Z,1001.04
2018-08-13T02:39:23.580Z,1001.01
2018-08-13T02:39:49.733Z,1001.02
2018-08-13T02:40:15.890Z,1001.03
2018-08-13T02:40:42.030Z,1001.06
2018-08-13T02:41:08.170Z,1001.07
2018-08-13T02:41:34.310Z,1001.08
2018-08-13T02:42:00.468Z,1001.1
2018-08-13T02:42:26.669Z,1001.14
2018-08-13T02:42:52.822Z,1001.13
2018-08-13T02:43:19.017Z,1001.13
2018-08-13T02:43:45.195Z,1001.13
2018-08-13T02:44:11.352Z,1001.11
2018-08-13T02:44:37.524Z,1001.14
2018-08-13T02:45:03.664Z,1001.13
2018-08-13T02:45:29.844Z,1001.1
2018-08-13T02:45:56.007Z,1001.1
2018-08-13T02:46:22.175Z,1001.1
2018-08-13T02:46:48.358Z,1001.13
2018-08-13T02:47:14.520Z,1001.1
2018-08-13T02:47:40.679Z,1001.12
2018-08-13T02:48:06.818Z,1001.11
2018-08-13T02:48:32.980Z,1001.11
2018-08-13T02:48:59.135Z,1001.11
2018-08-13T02:49:25.295Z,1001.15
2018-08-13T02:49:51.425Z,1001.16
2018-08-13T02:50:17.588Z,1001.13
2018-08-13T02:50:43.723Z,1001.12
2018-08-13T02:51:09.885Z,1001.19
2018-08-13T02:51:36.038Z,1001.18
2018-08-13T02:52:02.233Z,1001.18
2018-08-13T02:52:28.379Z,1001.16
2018-08-13T02:52:54.538Z,1001.18
2018-08-13T02:53:20.702Z,1001.19
2018-08-13T02:53:46.861Z,1001.14
2018-08-13T02:54:12.993Z,1001.14
2018-08-13T02:54:39.138Z,1001.14
2018-08-13T02:55:05.296Z,1001.17
2018-08-13T02:55:31.458Z,1001.14
2018-08-13T02:55:57.615Z,1001.15
2018-08-13T02:56:23.748Z,1001.18
2018-08-13T02:56:49.884Z,1001.14
2018-08-13T02:57:16.048Z,1001.19
2018-08-13T02:57:42.189Z,1001.18
2018-08-13T02:58:08.422Z,1001.2
2018-08-13T02:58:34.532Z,1001.22
2018-08-13T02:59:00.673Z,1001.19
2018-08-13T02:59:26.805Z,1001.21
2018-08-13T02:59:52.946Z,1001.21
2018-08-13T03:00:19.081Z,1001.21
2018-08-13T03:00:45.240Z,1001.23
2018-08-13T03:01:11.398Z,1001.25
2018-08-13T03:01:37.528Z,1001.21
2018-08-13T03:02:03.673Z,1001.21
2018-08-13T03:02:29.850Z,1001.24
2018-08-13T03:02:55.986Z,1001.21
2018-08-13T03:03:22.124Z,1001.21
2018-08-13T03:03:48.298Z,1001.23
2018-08-13T03:04:14.460Z,1001.21
2018-08-13T03:04:40.647Z,1001.19
2018-08-13T03:05:06.766Z,1001.16
2018-08-13T03:05:32.977Z,1001.16
2018-08-13T03:05:59.138Z,1001.16
2018-08-13T03:06:25.299Z,1001.11
2018-08-13T03:06:51.443Z,1001.12
2018-08-13T03:07:17.585Z,1001.09
2018-08-13T03:07:43.726Z,1001.05
2018-08-13T03:08:09.853Z,1001.07
2018-08-13T03:08:36.013Z,1001.04
2018-08-13T03:09:02.146Z,1001.05
2018-08-13T03:09:28.337Z,1000.97
2018-08-13T03:09:54.491Z,1000.97
2018-08-13T03:10:20.634Z,1000.99
2018-08-13T03:10:46.765Z,1000.95
2018-08-13T03:11:12.933Z,1000.92
2018-08-13T03:11:39.107Z,1000.94
2018-08-13T03:12:05.248Z,1000.9
2018-08-13T03:12:31.373Z,1000.95
2018-08-13T03:12:57.514Z,1000.94
2018-08-13T03:13:23.644Z,1000.93
2018-08-13T03:13:49.780Z,1000.9
2018-08-13T03:14:15.923Z,1000.88
2018-08-13T03:14:42.058Z,1000.91
2018-08-13T03:15:08.239Z,1000.87
2018-08-13T03:15:34.416Z,1000.87
2018-08-13T03:16:00.574Z,1000.85
2018-08-13T03:16:26.714Z,1000.83
2018-08-13T03:16:52.849Z,1000.8
2018-08-13T03:17:18.989Z,1000.81
2018-08-13T03:17:45.144Z,1000.81
2018-08-13T03:18:11.294Z,1000.75
2018-08-13T03:18:37.455Z,1000.73
2018-08-13T03:19:03.584Z,1000.76
2018-08-13T03:19:29.751Z,1000.73
2018-08-13T03:19:55.894Z,1000.74
2018-08-13T03:20:22.048Z,1000.72
2018-08-13T03:20:48.203Z,1000.72
2018-08-13T03:21:14.338Z,1000.69
2018-08-13T03:21:40.467Z,1000.7
2018-08-13T03:22:06.611Z,1000.69
2018-08-13T03:22:32.793Z,1000.7
2018-08-13T03:22:58.955Z,1000.71
2018-08-13T03:23:25.116Z,1000.72
2018-08-13T03:23:51.274Z,1000.71
2018-08-13T03:24:17.484Z,1000.72
2018-08-13T03:24:43.660Z,1000.69
2018-08-13T03:25:09.824Z,1000.69
2018-08-13T03:25:35.987Z,1000.68
2018-08-13T03:26:02.149Z,1000.69
2018-08-13T03:26:28.286Z,1000.71
2018-08-13T03:26:54.443Z,1000.7
2018-08-13T03:27:20.650Z,1000.66
2018-08-13T03:27:46.795Z,1000.65
2018-08-13T03:28:12.949Z,1000.69
2018-08-13T03:28:39.080Z,1000.68
2018-08-13T03:29:05.249Z,1000.63
2018-08-13T03:29:31.381Z,1000.63
2018-08-13T03:29:57.540Z,1000.64
2018-08-13T03:30:23.757Z,1000.62
2018-08-13T03:30:49.982Z,1000.61
2018-08-13T03:31:16.166Z,1000.64
2018-08-13T03:31:42.370Z,1000.64
2018-08-13T03:32:08.558Z,1000.59
2018-08-13T03:32:34.688Z,1000.62
2018-08-13T03:33:00.826Z,1000.59
2018-08-13T03:33:26.969Z,1000.6
2018-08-13T03:33:53.116Z,1000.61
2018-08-13T03:34:19.275Z,1000.57
2018-08-13T03:34:45.409Z,1000.6
2018-08-13T03:35:11.549Z,1000.56
2018-08-13T03:35:37.709Z,1000.58
2018-08-13T03:36:03.846Z,1000.59
2018-08-13T03:36:29.987Z,1000.55
2018-08-13T03:36:56.119Z,1000.56
2018-08-13T03:37:22.260Z,1000.55
2018-08-13T03:37:48.394Z,1000.53
2018-08-13T03:38:14.525Z,1000.53
2018-08-13T03:38:40.672Z,1000.53
2018-08-13T03:39:06.807Z,1000.51
2018-08-13T03:39:32.941Z,1000.52
2018-08-13T03:39:59.078Z,1000.49
2018-08-13T03:40:25.211Z,1000.49
2018-08-13T03:40:51.344Z,1000.49
2018-08-13T03:41:17.482Z,1000.51
2018-08-13T03:41:43.617Z,1000.49
2018-08-13T03:42:09.751Z,1000.48
2018-08-13T03:42:35.885Z,1000.49
2018-08-13T03:43:02.021Z,1000.5
2018-08-13T03:43:28.149Z,1000.53
2018-08-13T03:43:54.293Z,1000.54
2018-08-13T03:44:20.438Z,1000.49
2018-08-13T03:44:46.575Z,1000.53
2018-08-13T03:45:12.713Z,1000.52
2018-08-13T03:45:38.844Z,1000.51
2018-08-13T03:46:04.977Z,1000.5
2018-08-13T03:46:31.116Z,1000.51
2018-08-13T03:46:57.273Z,1000.47
2018-08-13T03:47:23.413Z,1000.47
2018-08-13T03:47:49.539Z,1000.44
2018-08-13T03:48:15.678Z,1000.4
2018-08-13T03:48:41.822Z,1000.41
2018-08-13T03:49:07.975Z,1000.38
2018-08-13T03:49:34.116Z,1000.38
2018-08-13T03:50:00.272Z,1000.32
2018-08-13T03:50:26.433Z,1000.31
2018-08-13T03:50:52.594Z,1000.27
2018-08-13T03:51:18.726Z,1000.26
2018-08-13T03:51:44.858Z,1000.29
2018-08-13T03:52:10.995Z,1000.29
2018-08-13T03:52:37.134Z,1000.28
2018-08-13T03:53:03.275Z,1000.26
2018-08-13T03:53:29.404Z,1000.27
2018-08-13T03:53:55.645Z,1000.26
2018-08-13T03:54:21.698Z,1000.22
2018-08-13T03:54:47.842Z,1000.21
2018-08-13T03:55:13.976Z,1000.18
2018-08-13T03:55:40.119Z,1000.17
2018-08-13T03:56:06.279Z,1000.18
2018-08-13T03:56:32.406Z,1000.17
2018-08-13T03:56:58.547Z,1000.16
2018-08-13T03:57:24.684Z,1000.15
2018-08-13T03:57:50.865Z,1000.13
2018-08-13T03:58:17.007Z,1000.12
2018-08-13T03:58:43.160Z,1000.1
2018-08-13T03:59:09.296Z,1000.09
2018-08-13T03:59:35.432Z,1000.09
2018-08-13T04:00:01.566Z,1000.07
2018-08-13T04:00:27.707Z,1000.08
2018-08-13T04:00:53.837Z,1000.02
2018-08-13T04:01:19.973Z,1000.05
2018-08-13T04:01:46.109Z,1000.03
2018-08-13T04:02:12.249Z,1000.01
2018-08-13T04:02:38.391Z,1000.02
2018-08-13T04:03:04.525Z,1000.01
2018-08-13T04:03:30.661Z,1000.02
2018-08-13T04:03:56.800Z,1000.03
2018-08-13T04:04:22.935Z,1000.03
2018-08-13T04:04:49.095Z,1000.02
2018-08-13T04:05:15.238Z,1000.02
2018-08-13T04:05:41.397Z,1000.04
2018-08-13T04:06:07.541Z,999.99
2018-08-13T04:06:33.697Z,1000.06
2018-08-13T04:06:59.849Z,1000.02
2018-08-13T04:07:26.004Z,1000.07
2018-08-13T04:07:52.143Z,1000.05
2018-08-13T04:08:18.272Z,1000.09
2018-08-13T04:08:44.452Z,1000.11
2018-08-13T04:09:10.590Z,1000.04
2018-08-13T04:09:36.728Z,1000.11
2018-08-13T04:10:02.916Z,1000.1
2018-08-13T04:10:29.044Z,1000.13
2018-08-13T04:10:55.187Z,1000.08
2018-08-13T04:11:21.350Z,1000.09
2018-08-13T04:11:47.486Z,1000.13
2018-08-13T04:12:13.640Z,1000.12
2018-08-13T04:12:39.762Z,1000.12
2018-08-13T04:13:05.926Z,1000.1
2018-08-13T04:13:32.077Z,1000.1
2018-08-13T04:13:58.236Z,1000.13
2018-08-13T04:14:24.380Z,1000.11
2018-08-13T04:14:50.516Z,1000.11
2018-08-13T04:15:16.648Z,1000.1
2018-08-13T04:15:42.787Z,1000.09
2018-08-13T04:16:08.925Z,1000.08
2018-08-13T04:16:35.057Z,1000.1
2018-08-13T04:17:01.198Z,1000.08
2018-08-13T04:17:27.340Z,1000.11
2018-08-13T04:17:53.469Z,1000.06
2018-08-13T04:18:19.611Z,1000.1
2018-08-13T04:18:45.747Z,1000.08
2018-08-13T04:19:11.889Z,1000.07
2018-08-13T04:19:38.019Z,1000.09
2018-08-13T04:20:04.161Z,1000.1
2018-08-13T04:20:30.293Z,1000.15
2018-08-13T04:20:56.435Z,1000.11
2018-08-13T04:21:22.566Z,1000.17
2018-08-13T04:21:48.699Z,1000.12
2018-08-13T04:22:14.860Z,1000.11
2018-08-13T04:22:41.024Z,1000.12
2018-08-13T04:23:07.158Z,1000.13
2018-08-13T04:23:33.296Z,1000.1
2018-08-13T04:23:59.430Z,1000.14
2018-08-13T04:24:25.577Z,1000.13
2018-08-13T04:24:51.698Z,1000.15
2018-08-13T04:25:17.841Z,1000.13
2018-08-13T04:25:43.972Z,1000.16
2018-08-13T04:26:10.111Z,1000.17
2018-08-13T04:26:36.292Z,1000.12
2018-08-13T04:27:02.442Z,1000.14
2018-08-13T04:27:28.601Z,1000.12
2018-08-13T04:27:54.733Z,1000.1
2018-08-13T04:28:20.875Z,1000.14
2018-08-13T04:28:47.009Z,1000.1
2018-08-13T04:29:13.147Z,1000.13
2018-08-13T04:29:39.277Z,1000.11
2018-08-13T04:30:05.418Z,1000.11
2018-08-13T04:30:31.548Z,1000.14
2018-08-13T04:30:57.713Z,1000.16
2018-08-13T04:31:23.861Z,1000.18
2018-08-13T04:31:49.991Z,1000.21
2018-08-13T04:32:16.125Z,1000.23
2018-08-13T04:32:42.343Z,1000.23
2018-08-13T04:33:08.423Z,1000.24
2018-08-13T04:33:34.559Z,1000.24
2018-08-13T04:34:00.702Z,1000.25
2018-08-13T04:34:26.855Z,1000.23
2018-08-13T04:34:52.995Z,1000.25
2018-08-13T04:35:19.124Z,1000.25
2018-08-13T04:35:45.281Z,1000.23
2018-08-13T04:36:11.425Z,1000.24
2018-08-13T04:36:37.561Z,1000.24
2018-08-13T04:37:03.702Z,1000.22
2018-08-13T04:37:29.884Z,1000.2
2018-08-13T04:37:56.016Z,1000.19
2018-08-13T04:38:22.158Z,1000.23
2018-08-13T04:38:48.288Z,1000.2
2018-08-13T04:39:14.428Z,1000.16
2018-08-13T04:39:40.616Z,1000.18
2018-08-13T04:40:06.705Z,1000.12
2018-08-13T04:40:32.864Z,1000.16
2018-08-13T04:40:59.018Z,1000.13
2018-08-13T04:41:25.154Z,1000.15
2018-08-13T04:41:51.290Z,1000.15
2018-08-13T04:42:17.433Z,1000.14
2018-08-13T04:42:43.566Z,1000.13
2018-08-13T04:43:09.706Z,1000.1
2018-08-13T04:43:35.845Z,1000.13
2018-08-13T04:44:01.979Z,1000.1
2018-08-13T04:44:28.144Z,1000.12
2018-08-13T04:44:54.282Z,1000.11
2018-08-13T04:45:20.419Z,1000.1
2018-08-13T04:45:46.572Z,1000.06
2018-08-13T04:46:12.735Z,1000.12
2018-08-13T04:46:38.868Z,1000.09
2018-08-13T04:47:05.005Z,1000.09
2018-08-13T04:47:31.136Z,1000.07
2018-08-13T04:47:57.299Z,1000.07
2018-08-13T04:48:23.432Z,1000.05
2018-08-13T04:48:49.572Z,1000.1
2018-08-13T04:49:15.707Z,1000.1
2018-08-13T04:49:41.842Z,1000.06
2018-08-13T04:50:07.988Z,1000.07
2018-08-13T04:50:34.162Z,1000.09
2018-08-13T04:51:00.295Z,1000.04
2018-08-13T04:51:26.433Z,1000.05
2018-08-13T04:51:52.571Z,1000.02
2018-08-13T04:52:18.845Z,1000.01
2018-08-13T04:52:44.867Z,999.97
2018-08-13T04:53:11.012Z,999.96
2018-08-13T04:53:37.161Z,999.98
2018-08-13T04:54:03.301Z,999.99
2018-08-13T04:54:29.438Z,999.98
2018-08-13T04:54:55.572Z,1000.01
2018-08-13T04:55:21.738Z,999.99
2018-08-13T04:55:47.907Z,999.98
2018-08-13T04:56:14.038Z,1000
2018-08-13T04:56:40.178Z,999.98
2018-08-13T04:57:06.312Z,1000
2018-08-13T04:57:32.462Z,1000.01
2018-08-13T04:57:58.598Z,999.99
2018-08-13T04:58:24.779Z,1000.02
2018-08-13T04:58:50.950Z,1000
2018-08-13T04:59:17.054Z,999.99
2018-08-13T04:59:43.192Z,1000
2018-08-13T05:00:09.354Z,999.98
2018-08-13T05:00:35.533Z,999.97
2018-08-13T05:01:01.680Z,999.99
2018-08-13T05:01:27.810Z,999.93
2018-08-13T05:01:53.943Z,999.98
2018-08-13T05:02:20.080Z,999.92
2018-08-13T05:02:46.245Z,999.95
2018-08-13T05:03:12.379Z,999.95
2018-08-13T05:03:38.548Z,999.96
2018-08-13T05:04:04.731Z,999.94
2018-08-13T05:04:30.874Z,999.96
2018-08-13T05:04:57.004Z,999.94
2018-08-13T05:05:23.140Z,999.94
2018-08-13T05:05:49.281Z,999.94
2018-08-13T05:06:15.413Z,999.93
2018-08-13T05:06:41.553Z,999.94
2018-08-13T05:07:07.687Z,999.98
2018-08-13T05:07:33.845Z,999.94
2018-08-13T05:07:59.991Z,999.97
2018-08-13T05:08:26.127Z,999.94
2018-08-13T05:08:52.284Z,999.92
2018-08-13T05:09:18.415Z,999.91
2018-08-13T05:09:44.553Z,999.89
2018-08-13T05:10:10.682Z,999.93
2018-08-13T05:10:36.895Z,999.95
2018-08-13T05:11:03.038Z,999.95
2018-08-13T05:11:29.169Z,999.98
2018-08-13T05:11:55.312Z,999.98
2018-08-13T05:12:21.453Z,1000.02
2018-08-13T05:12:47.606Z,1000.05
2018-08-13T05:13:13.742Z,1000.07
2018-08-13T05:13:39.903Z,1000.12
2018-08-13T05:14:06.035Z,1000.12
2018-08-13T05:14:32.176Z,1000.15
2018-08-13T05:14:58.333Z,1000.16
2018-08-13T05:15:24.474Z,1000.23
2018-08-13T05:15:50.612Z,1000.3
2018-08-13T05:16:16.749Z,1000.28
2018-08-13T05:16:42.886Z,1000.35
2018-08-13T05:17:09.025Z,1000.4
2018-08-13T05:17:35.159Z,1000.44
2018-08-13T05:18:01.321Z,1000.37